sensor_id;sensor_type;location;lat;lon;timestamp;pressure;altitude;pressure_sealevel;temperature;humidity
32452;BME280;45528;52.102;5.242;2023-05-08T00:02:07;101687.0;;;18.89;67.3
32452;BME280;45528;52.102;5.242;2023-05-08T00:03:44;101691.0;;;18.91;67.2
32452;BME280;45528;52.102;5.242;2023-05-08T00:05:20;101694.0;;;19.0;66.84
32452;BME280;45528;52.102;5.242;2023-05-08T00:06:56;101694.0;;;19.03;66.7
32452;BME280;45528;52.102;5.242;2023-05-08T00:10:11;101688.0;;;19.0;66.73
32452;BME280;45528;52.102;5.242;2023-05-08T00:11:47;101689.0;;;18.98;66.77
32452;BME280;45528;52.102;5.242;2023-05-08T00:13:24;101685.0;;;18.93;66.91
32452;BME280;45528;52.102;5.242;2023-05-08T00:16:37;101680.0;;;18.86;67.0
32452;BME280;45528;52.102;5.242;2023-05-08T00:18:13;101680.0;;;18.84;67.1
32452;BME280;45528;52.102;5.242;2023-05-08T00:19:50;101676.0;;;18.84;67.12
32452;BME280;45528;52.102;5.242;2023-05-08T00:23:04;101673.0;;;18.82;67.22
32452;BME280;45528;52.102;5.242;2023-05-08T00:24:40;101673.0;;;18.82;67.33
32452;BME280;45528;52.102;5.242;2023-05-08T00:26:17;101673.0;;;18.87;67.03
32452;BME280;45528;52.102;5.242;2023-05-08T00:27:53;101673.0;;;18.96;66.52
32452;BME280;45528;52.102;5.242;2023-05-08T00:31:05;101675.0;;;18.89;66.62
32452;BME280;45528;52.102;5.242;2023-05-08T00:32:41;101676.0;;;18.88;66.61
32452;BME280;45528;52.102;5.242;2023-05-08T00:34:17;101675.0;;;18.82;66.85
32452;BME280;45528;52.102;5.242;2023-05-08T00:37:34;101674.0;;;18.91;66.42
32452;BME280;45528;52.102;5.242;2023-05-08T00:39:11;101675.0;;;18.87;66.53
32452;BME280;45528;52.102;5.242;2023-05-08T00:40:48;101673.0;;;18.88;66.61
32452;BME280;45528;52.102;5.242;2023-05-08T00:44:00;101673.0;;;19.0;65.94
32452;BME280;45528;52.102;5.242;2023-05-08T00:45:38;101676.0;;;19.0;65.72
32452;BME280;45528;52.102;5.242;2023-05-08T00:47:15;101677.0;;;18.91;65.86
32452;BME280;45528;52.102;5.242;2023-05-08T00:48:52;101671.0;;;18.81;66.35
32452;BME280;45528;52.102;5.242;2023-05-08T00:52:06;101668.0;;;18.75;66.49
32452;BME280;45528;52.102;5.242;2023-05-08T00:53:43;101668.0;;;18.71;66.61
32452;BME280;45528;52.102;5.242;2023-05-08T00:55:20;101666.0;;;18.66;66.72
32452;BME280;45528;52.102;5.242;2023-05-08T00:58:35;101664.0;;;18.66;66.61
32452;BME280;45528;52.102;5.242;2023-05-08T01:00:15;101665.0;;;18.79;66.08
32452;BME280;45528;52.102;5.242;2023-05-08T01:01:52;101669.0;;;18.7;66.1
32452;BME280;45528;52.102;5.242;2023-05-08T01:03:31;101670.0;;;18.56;66.44
32452;BME280;45528;52.102;5.242;2023-05-08T01:06:45;101667.0;;;18.53;66.77
32452;BME280;45528;52.102;5.242;2023-05-08T01:08:21;101670.0;;;18.5;66.78
32452;BME280;45528;52.102;5.242;2023-05-08T01:09:57;101667.0;;;18.43;66.94
32452;BME280;45528;52.102;5.242;2023-05-08T01:13:33;101666.0;;;18.39;67.09
32452;BME280;45528;52.102;5.242;2023-05-08T01:15:25;101667.0;;;18.36;67.02
32452;BME280;45528;52.102;5.242;2023-05-08T01:17:11;101669.0;;;18.34;67.28
32452;BME280;45528;52.102;5.242;2023-05-08T01:19:00;101673.0;;;18.43;67.08
32452;BME280;45528;52.102;5.242;2023-05-08T01:20:55;101669.0;;;18.45;66.94
32452;BME280;45528;52.102;5.242;2023-05-08T01:22:59;101666.0;;;18.59;66.37
32452;BME280;45528;52.102;5.242;2023-05-08T01:26:19;101666.0;;;18.66;65.99
32452;BME280;45528;52.102;5.242;2023-05-08T01:28:21;101670.0;;;18.59;65.86
32452;BME280;45528;52.102;5.242;2023-05-08T01:32:00;101671.0;;;18.5;66.11
32452;BME280;45528;52.102;5.242;2023-05-08T01:33:50;101674.0;;;18.61;65.63
32452;BME280;45528;52.102;5.242;2023-05-08T01:35:38;101678.0;;;18.55;65.55
32452;BME280;45528;52.102;5.242;2023-05-08T01:37:28;101680.0;;;18.61;65.45
32452;BME280;45528;52.102;5.242;2023-05-08T01:39:17;101680.0;;;18.52;65.42
32452;BME280;45528;52.102;5.242;2023-05-08T01:42:46;101683.0;;;18.3;65.27
32452;BME280;45528;52.102;5.242;2023-05-08T01:44:43;101683.0;;;18.53;65.16
32452;BME280;45528;52.102;5.242;2023-05-08T01:46:24;101682.0;;;18.43;65.55
32452;BME280;45528;52.102;5.242;2023-05-08T01:48:04;101681.0;;;18.34;65.83
32452;BME280;45528;52.102;5.242;2023-05-08T01:49:45;101680.0;;;18.34;65.56
32452;BME280;45528;52.102;5.242;2023-05-08T01:53:07;101683.0;;;18.31;65.64
32452;BME280;45528;52.102;5.242;2023-05-08T01:54:51;101684.0;;;18.34;65.49
32452;BME280;45528;52.102;5.242;2023-05-08T01:56:46;101680.0;;;18.36;65.38
32452;BME280;45528;52.102;5.242;2023-05-08T01:58:25;101680.0;;;18.38;65.14
32452;BME280;45528;52.102;5.242;2023-05-08T02:00:03;101680.0;;;18.29;65.37
32452;BME280;45528;52.102;5.242;2023-05-08T02:03:22;101681.0;;;18.27;65.41
32452;BME280;45528;52.102;5.242;2023-05-08T02:05:01;101677.0;;;18.11;65.92
32452;BME280;45528;52.102;5.242;2023-05-08T02:06:39;101682.0;;;18.13;66.0
32452;BME280;45528;52.102;5.242;2023-05-08T02:08:17;101686.0;;;18.16;65.91
32452;BME280;45528;52.102;5.242;2023-05-08T02:11:34;101684.0;;;18.02;66.06
32452;BME280;45528;52.102;5.242;2023-05-08T02:13:12;101684.0;;;18.0;66.22
32452;BME280;45528;52.102;5.242;2023-05-08T02:14:51;101688.0;;;17.93;66.45
32452;BME280;45528;52.102;5.242;2023-05-08T02:18:07;101689.0;;;17.98;66.22
32452;BME280;45528;52.102;5.242;2023-05-08T02:19:45;101687.0;;;17.95;66.37
32452;BME280;45528;52.102;5.242;2023-05-08T02:21:22;101688.0;;;17.95;66.37
32452;BME280;45528;52.102;5.242;2023-05-08T02:23:01;101692.0;;;17.95;66.42
32452;BME280;45528;52.102;5.242;2023-05-08T02:26:16;101696.0;;;17.91;66.35
32452;BME280;45528;52.102;5.242;2023-05-08T02:27:54;101696.0;;;17.88;66.37
32452;BME280;45528;52.102;5.242;2023-05-08T02:29:31;101698.0;;;17.81;66.58
32452;BME280;45528;52.102;5.242;2023-05-08T02:32:48;101698.0;;;17.79;66.64
32452;BME280;45528;52.102;5.242;2023-05-08T02:34:26;101697.0;;;17.77;66.56
32452;BME280;45528;52.102;5.242;2023-05-08T02:36:04;101691.0;;;17.68;66.74
32452;BME280;45528;52.102;5.242;2023-05-08T02:37:44;101697.0;;;17.64;66.85
32452;BME280;45528;52.102;5.242;2023-05-08T02:41:05;101692.0;;;17.61;66.91
32452;BME280;45528;52.102;5.242;2023-05-08T02:42:44;101693.0;;;17.63;67.09
32452;BME280;45528;52.102;5.242;2023-05-08T02:44:21;101693.0;;;17.62;66.99
32452;BME280;45528;52.102;5.242;2023-05-08T02:46:08;101695.0;;;17.61;67.23
32452;BME280;45528;52.102;5.242;2023-05-08T02:49:40;101691.0;;;17.61;67.16
32452;BME280;45528;52.102;5.242;2023-05-08T02:51:24;101692.0;;;17.59;66.95
32452;BME280;45528;52.102;5.242;2023-05-08T02:53:08;101690.0;;;17.63;67.02
32452;BME280;45528;52.102;5.242;2023-05-08T02:54:57;101689.0;;;17.75;66.49
32452;BME280;45528;52.102;5.242;2023-05-08T02:56:37;101687.0;;;17.86;66.19
32452;BME280;45528;52.102;5.242;2023-05-08T03:00:03;101684.0;;;17.77;66.2
32452;BME280;45528;52.102;5.242;2023-05-08T03:01:47;101681.0;;;17.7;66.41
32452;BME280;45528;52.102;5.242;2023-05-08T03:03:25;101676.0;;;17.68;66.52
32452;BME280;45528;52.102;5.242;2023-05-08T03:05:12;101675.0;;;17.61;66.66
32452;BME280;45528;52.102;5.242;2023-05-08T03:06:53;101673.0;;;17.62;66.77
32452;BME280;45528;52.102;5.242;2023-05-08T03:10:12;101674.0;;;17.61;66.52
32452;BME280;45528;52.102;5.242;2023-05-08T03:11:53;101674.0;;;17.61;66.41
32452;BME280;45528;52.102;5.242;2023-05-08T03:13:36;101671.0;;;17.53;66.58
32452;BME280;45528;52.102;5.242;2023-05-08T03:15:20;101668.0;;;17.55;66.61
32452;BME280;45528;52.102;5.242;2023-05-08T03:18:46;101670.0;;;17.5;66.52
32452;BME280;45528;52.102;5.242;2023-05-08T03:20:30;101671.0;;;17.52;66.69
32452;BME280;45528;52.102;5.242;2023-05-08T03:22:10;101674.0;;;17.5;66.48
32452;BME280;45528;52.102;5.242;2023-05-08T03:23:48;101677.0;;;17.5;66.59
32452;BME280;45528;52.102;5.242;2023-05-08T03:27:06;101674.0;;;17.54;66.2
32452;BME280;45528;52.102;5.242;2023-05-08T03:28:45;101674.0;;;17.59;66.0
32452;BME280;45528;52.102;5.242;2023-05-08T03:30:24;101674.0;;;17.52;66.3
32452;BME280;45528;52.102;5.242;2023-05-08T03:32:01;101671.0;;;17.46;66.72
32452;BME280;45528;52.102;5.242;2023-05-08T03:35:18;101674.0;;;17.45;66.67
32452;BME280;45528;52.102;5.242;2023-05-08T03:36:56;101680.0;;;17.46;66.87
32452;BME280;45528;52.102;5.242;2023-05-08T03:38:33;101675.0;;;17.5;66.75
32452;BME280;45528;52.102;5.242;2023-05-08T03:41:48;101675.0;;;17.56;66.52
32452;BME280;45528;52.102;5.242;2023-05-08T03:43:24;101674.0;;;17.53;66.74
32452;BME280;45528;52.102;5.242;2023-05-08T03:45:03;101675.0;;;17.62;66.8
32452;BME280;45528;52.102;5.242;2023-05-08T03:46:41;101675.0;;;17.68;66.55
32452;BME280;45528;52.102;5.242;2023-05-08T03:50:02;101673.0;;;17.75;66.52
32452;BME280;45528;52.102;5.242;2023-05-08T03:51:38;101665.0;;;17.75;66.62
32452;BME280;45528;52.102;5.242;2023-05-08T03:53:15;101666.0;;;17.75;66.77
32452;BME280;45528;52.102;5.242;2023-05-08T03:56:29;101664.0;;;17.77;66.83
32452;BME280;45528;52.102;5.242;2023-05-08T03:58:12;101666.0;;;17.78;66.91
32452;BME280;45528;52.102;5.242;2023-05-08T04:00:05;101668.0;;;17.75;67.19
32452;BME280;45528;52.102;5.242;2023-05-08T04:01:49;101668.0;;;17.77;67.47
32452;BME280;45528;52.102;5.242;2023-05-08T04:03:42;101670.0;;;17.8;67.55
32452;BME280;45528;52.102;5.242;2023-05-08T04:05:29;101669.0;;;17.81;67.42
32452;BME280;45528;52.102;5.242;2023-05-08T04:09:00;101662.0;;;17.81;67.58
32452;BME280;45528;52.102;5.242;2023-05-08T04:10:42;101664.0;;;17.8;67.64
32452;BME280;45528;52.102;5.242;2023-05-08T04:12:31;101667.0;;;17.87;67.55
32452;BME280;45528;52.102;5.242;2023-05-08T04:14:16;101663.0;;;17.87;67.41
32452;BME280;45528;52.102;5.242;2023-05-08T04:16:01;101668.0;;;17.81;67.72
32452;BME280;45528;52.102;5.242;2023-05-08T04:19:23;101673.0;;;17.75;67.84
32452;BME280;45528;52.102;5.242;2023-05-08T04:21:07;101675.0;;;17.75;67.83
32452;BME280;45528;52.102;5.242;2023-05-08T04:22:46;101677.0;;;17.75;67.91
32452;BME280;45528;52.102;5.242;2023-05-08T04:24:26;101678.0;;;17.77;67.91
32452;BME280;45528;52.102;5.242;2023-05-08T04:27:42;101678.0;;;17.77;67.73
32452;BME280;45528;52.102;5.242;2023-05-08T04:29:19;101678.0;;;17.73;67.74
32452;BME280;45528;52.102;5.242;2023-05-08T04:30:56;101681.0;;;17.72;67.62
32452;BME280;45528;52.102;5.242;2023-05-08T04:34:11;101677.0;;;17.66;67.6
32452;BME280;45528;52.102;5.242;2023-05-08T04:35:49;101683.0;;;17.62;67.69
32452;BME280;45528;52.102;5.242;2023-05-08T04:37:26;101684.0;;;17.63;67.58
32452;BME280;45528;52.102;5.242;2023-05-08T04:39:03;101685.0;;;17.61;67.5
32452;BME280;45528;52.102;5.242;2023-05-08T04:42:15;101686.0;;;17.68;67.3
32452;BME280;45528;52.102;5.242;2023-05-08T04:43:52;101684.0;;;17.71;67.22
32452;BME280;45528;52.102;5.242;2023-05-08T04:45:28;101687.0;;;17.77;66.94
32452;BME280;45528;52.102;5.242;2023-05-08T04:48:40;101689.0;;;17.77;66.99
32452;BME280;45528;52.102;5.242;2023-05-08T04:50:17;101693.0;;;17.78;66.95
32452;BME280;45528;52.102;5.242;2023-05-08T04:51:53;101695.0;;;17.81;66.83
32452;BME280;45528;52.102;5.242;2023-05-08T04:55:07;101695.0;;;17.8;67.08
32452;BME280;45528;52.102;5.242;2023-05-08T04:56:44;101697.0;;;17.88;66.78
32452;BME280;45528;52.102;5.242;2023-05-08T04:58:20;101701.0;;;17.88;66.83
32452;BME280;45528;52.102;5.242;2023-05-08T04:59:56;101707.0;;;18.02;67.09
32452;BME280;45528;52.102;5.242;2023-05-08T05:03:08;101711.0;;;18.21;66.42
32452;BME280;45528;52.102;5.242;2023-05-08T05:04:45;101713.0;;;18.41;66.23
32452;BME280;45528;52.102;5.242;2023-05-08T05:06:21;101716.0;;;18.45;65.91
32452;BME280;45528;52.102;5.242;2023-05-08T05:09:33;101717.0;;;18.45;66.16
32452;BME280;45528;52.102;5.242;2023-05-08T05:11:09;101719.0;;;18.59;66.1
32452;BME280;45528;52.102;5.242;2023-05-08T05:12:45;101723.0;;;18.71;65.62
32452;BME280;45528;52.102;5.242;2023-05-08T05:15:58;101725.0;;;18.78;65.47
32452;BME280;45528;52.102;5.242;2023-05-08T05:17:34;101727.0;;;18.96;65.12
32452;BME280;45528;52.102;5.242;2023-05-08T05:19:10;101724.0;;;18.95;64.87
32452;BME280;45528;52.102;5.242;2023-05-08T05:20:46;101724.0;;;18.93;64.94
32452;BME280;45528;52.102;5.242;2023-05-08T05:23:58;101727.0;;;18.93;65.05
32452;BME280;45528;52.102;5.242;2023-05-08T05:25:34;101730.0;;;18.93;65.3
32452;BME280;45528;52.102;5.242;2023-05-08T05:27:10;101730.0;;;19.09;65.06
32452;BME280;45528;52.102;5.242;2023-05-08T05:30:23;101733.0;;;19.18;64.83
32452;BME280;45528;52.102;5.242;2023-05-08T05:32:00;101735.0;;;19.18;64.7
32452;BME280;45528;52.102;5.242;2023-05-08T05:33:36;101734.0;;;19.28;64.45
32452;BME280;45528;52.102;5.242;2023-05-08T05:36:50;101738.0;;;19.3;64.5
32452;BME280;45528;52.102;5.242;2023-05-08T05:38:26;101741.0;;;19.31;64.77
32452;BME280;45528;52.102;5.242;2023-05-08T05:40:04;101740.0;;;19.39;64.89
32452;BME280;45528;52.102;5.242;2023-05-08T05:41:40;101742.0;;;19.41;64.94
32452;BME280;45528;52.102;5.242;2023-05-08T05:44:51;101745.0;;;19.57;64.69
32452;BME280;45528;52.102;5.242;2023-05-08T05:46:27;101745.0;;;19.54;64.27
32452;BME280;45528;52.102;5.242;2023-05-08T05:48:04;101749.0;;;19.46;64.52
32452;BME280;45528;52.102;5.242;2023-05-08T05:51:16;101749.0;;;19.53;64.49
32452;BME280;45528;52.102;5.242;2023-05-08T05:52:52;101745.0;;;19.5;64.94
32452;BME280;45528;52.102;5.242;2023-05-08T05:54:28;101744.0;;;19.75;63.7
32452;BME280;45528;52.102;5.242;2023-05-08T05:57:41;101742.0;;;19.75;63.59
32452;BME280;45528;52.102;5.242;2023-05-08T05:59:17;101745.0;;;19.68;63.61
32452;BME280;45528;52.102;5.242;2023-05-08T06:00:54;101742.0;;;19.7;64.25
32452;BME280;45528;52.102;5.242;2023-05-08T06:04:06;101743.0;;;19.7;64.22
32452;BME280;45528;52.102;5.242;2023-05-08T06:05:42;101748.0;;;19.7;64.38
32452;BME280;45528;52.102;5.242;2023-05-08T06:07:18;101748.0;;;19.81;64.6
32452;BME280;45528;52.102;5.242;2023-05-08T06:08:54;101752.0;;;19.91;64.59
32452;BME280;45528;52.102;5.242;2023-05-08T06:12:07;101748.0;;;20.06;64.33
32452;BME280;45528;52.102;5.242;2023-05-08T06:13:43;101755.0;;;20.2;63.98
32452;BME280;45528;52.102;5.242;2023-05-08T06:15:19;101755.0;;;20.21;63.95
32452;BME280;45528;52.102;5.242;2023-05-08T06:18:33;101760.0;;;20.32;63.95
32452;BME280;45528;52.102;5.242;2023-05-08T06:20:09;101760.0;;;20.51;63.9
32452;BME280;45528;52.102;5.242;2023-05-08T06:21:45;101758.0;;;20.55;63.34
32452;BME280;45528;52.102;5.242;2023-05-08T06:24:58;101756.0;;;20.62;63.6
32452;BME280;45528;52.102;5.242;2023-05-08T06:26:34;101757.0;;;20.65;63.11
32452;BME280;45528;52.102;5.242;2023-05-08T06:28:10;101755.0;;;20.65;63.31
32452;BME280;45528;52.102;5.242;2023-05-08T06:29:46;101761.0;;;20.61;63.84
32452;BME280;45528;52.102;5.242;2023-05-08T06:32:58;101764.0;;;20.85;63.67
32452;BME280;45528;52.102;5.242;2023-05-08T06:34:34;101763.0;;;20.94;63.42
32452;BME280;45528;52.102;5.242;2023-05-08T06:36:11;101763.0;;;21.04;63.48
32452;BME280;45528;52.102;5.242;2023-05-08T06:39:24;101761.0;;;20.99;63.05
32452;BME280;45528;52.102;5.242;2023-05-08T06:41:00;101766.0;;;21.16;63.11
32452;BME280;45528;52.102;5.242;2023-05-08T06:42:36;101766.0;;;21.23;63.15
32452;BME280;45528;52.102;5.242;2023-05-08T06:45:48;101764.0;;;21.26;62.68
32452;BME280;45528;52.102;5.242;2023-05-08T06:47:25;101767.0;;;21.3;62.95
32452;BME280;45528;52.102;5.242;2023-05-08T06:49:01;101768.0;;;21.22;62.98
32452;BME280;45528;52.102;5.242;2023-05-08T06:52:14;101770.0;;;21.27;63.46
32452;BME280;45528;52.102;5.242;2023-05-08T06:53:50;101770.0;;;21.45;62.6
32452;BME280;45528;52.102;5.242;2023-05-08T06:55:26;101769.0;;;21.41;63.43
32452;BME280;45528;52.102;5.242;2023-05-08T06:57:02;101767.0;;;21.64;63.04
32452;BME280;45528;52.102;5.242;2023-05-08T07:00:15;101764.0;;;21.79;62.87
32452;BME280;45528;52.102;5.242;2023-05-08T07:01:51;101761.0;;;21.72;62.98
32452;BME280;45528;52.102;5.242;2023-05-08T07:03:27;101767.0;;;21.75;62.79
32452;BME280;45528;52.102;5.242;2023-05-08T07:06:40;101765.0;;;21.78;62.59
32452;BME280;45528;52.102;5.242;2023-05-08T07:08:16;101764.0;;;21.77;63.03
32452;BME280;45528;52.102;5.242;2023-05-08T07:09:52;101766.0;;;21.77;63.32
32452;BME280;45528;52.102;5.242;2023-05-08T07:13:05;101768.0;;;21.84;63.0
32452;BME280;45528;52.102;5.242;2023-05-08T07:14:41;101767.0;;;21.9;63.15
32452;BME280;45528;52.102;5.242;2023-05-08T07:16:17;101761.0;;;21.86;63.01
32452;BME280;45528;52.102;5.242;2023-05-08T07:19:29;101763.0;;;21.83;63.58
32452;BME280;45528;52.102;5.242;2023-05-08T07:21:06;101764.0;;;21.9;63.28
32452;BME280;45528;52.102;5.242;2023-05-08T07:22:42;101765.0;;;21.81;63.96
32452;BME280;45528;52.102;5.242;2023-05-08T07:24:18;101762.0;;;22.12;61.96
32452;BME280;45528;52.102;5.242;2023-05-08T07:27:30;101764.0;;;22.12;62.9
32452;BME280;45528;52.102;5.242;2023-05-08T07:29:07;101765.0;;;22.11;63.5
32452;BME280;45528;52.102;5.242;2023-05-08T07:30:43;101767.0;;;22.3;63.11
32452;BME280;45528;52.102;5.242;2023-05-08T07:33:55;101765.0;;;22.27;63.05
32452;BME280;45528;52.102;5.242;2023-05-08T07:35:32;101769.0;;;22.3;62.72
32452;BME280;45528;52.102;5.242;2023-05-08T07:37:08;101767.0;;;22.38;62.25
32452;BME280;45528;52.102;5.242;2023-05-08T07:40:20;101770.0;;;22.34;62.2
32452;BME280;45528;52.102;5.242;2023-05-08T07:41:56;101763.0;;;22.42;62.21
32452;BME280;45528;52.102;5.242;2023-05-08T07:43:32;101769.0;;;22.27;62.57
32452;BME280;45528;52.102;5.242;2023-05-08T07:45:10;101762.0;;;22.22;62.74
32452;BME280;45528;52.102;5.242;2023-05-08T07:48:24;101759.0;;;22.36;62.45
32452;BME280;45528;52.102;5.242;2023-05-08T07:50:00;101766.0;;;22.3;62.7
32452;BME280;45528;52.102;5.242;2023-05-08T07:51:36;101762.0;;;22.45;62.23
32452;BME280;45528;52.102;5.242;2023-05-08T07:54:48;101761.0;;;22.43;62.12
32452;BME280;45528;52.102;5.242;2023-05-08T07:56:24;101765.0;;;22.43;62.1
32452;BME280;45528;52.102;5.242;2023-05-08T07:58:01;101770.0;;;22.66;61.62
32452;BME280;45528;52.102;5.242;2023-05-08T08:01:13;101768.0;;;22.64;61.48
32452;BME280;45528;52.102;5.242;2023-05-08T08:02:49;101765.0;;;22.58;61.72
32452;BME280;45528;52.102;5.242;2023-05-08T08:04:25;101767.0;;;22.67;62.2
32452;BME280;45528;52.102;5.242;2023-05-08T08:06:01;101770.0;;;22.56;61.93
32452;BME280;45528;52.102;5.242;2023-05-08T08:09:13;101768.0;;;22.58;61.86
32452;BME280;45528;52.102;5.242;2023-05-08T08:10:50;101767.0;;;22.66;61.98
32452;BME280;45528;52.102;5.242;2023-05-08T08:12:26;101766.0;;;22.75;62.56
32452;BME280;45528;52.102;5.242;2023-05-08T08:15:39;101769.0;;;22.88;62.13
32452;BME280;45528;52.102;5.242;2023-05-08T08:17:16;101768.0;;;22.98;61.58
32452;BME280;45528;52.102;5.242;2023-05-08T08:18:52;101767.0;;;22.98;61.51
32452;BME280;45528;52.102;5.242;2023-05-08T08:22:05;101769.0;;;23.03;60.75
32452;BME280;45528;52.102;5.242;2023-05-08T08:23:41;101764.0;;;23.22;60.35
32452;BME280;45528;52.102;5.242;2023-05-08T08:25:17;101760.0;;;23.2;60.24
32452;BME280;45528;52.102;5.242;2023-05-08T08:28:29;101761.0;;;23.46;59.3
32452;BME280;45528;52.102;5.242;2023-05-08T08:30:07;101765.0;;;23.38;59.37
32452;BME280;45528;52.102;5.242;2023-05-08T08:31:43;101762.0;;;23.35;59.72
32452;BME280;45528;52.102;5.242;2023-05-08T08:33:19;101755.0;;;23.11;60.09
32452;BME280;45528;52.102;5.242;2023-05-08T08:36:31;101757.0;;;23.08;61.16
32452;BME280;45528;52.102;5.242;2023-05-08T08:38:07;101764.0;;;23.17;61.51
32452;BME280;45528;52.102;5.242;2023-05-08T08:39:43;101760.0;;;23.16;60.49
32452;BME280;45528;52.102;5.242;2023-05-08T08:42:55;101761.0;;;23.16;60.65
32452;BME280;45528;52.102;5.242;2023-05-08T08:44:32;101766.0;;;23.25;60.79
32452;BME280;45528;52.102;5.242;2023-05-08T08:46:10;101771.0;;;23.38;59.93
32452;BME280;45528;52.102;5.242;2023-05-08T08:49:29;101772.0;;;23.46;59.15
32452;BME280;45528;52.102;5.242;2023-05-08T08:51:08;101769.0;;;23.63;59.36
32452;BME280;45528;52.102;5.242;2023-05-08T08:52:55;101769.0;;;23.78;58.98
32452;BME280;45528;52.102;5.242;2023-05-08T08:54:35;101773.0;;;23.78;59.53
32452;BME280;45528;52.102;5.242;2023-05-08T08:57:56;101770.0;;;23.81;58.36
32452;BME280;45528;52.102;5.242;2023-05-08T08:59:37;101772.0;;;23.81;58.21
32452;BME280;45528;52.102;5.242;2023-05-08T09:01:17;101772.0;;;23.7;59.2
32452;BME280;45528;52.102;5.242;2023-05-08T09:02:55;101775.0;;;23.75;59.49
32452;BME280;45528;52.102;5.242;2023-05-08T09:06:07;101773.0;;;23.93;58.73
32452;BME280;45528;52.102;5.242;2023-05-08T09:07:43;101771.0;;;24.13;58.61
32452;BME280;45528;52.102;5.242;2023-05-08T09:09:19;101771.0;;;24.31;57.61
32452;BME280;45528;52.102;5.242;2023-05-08T09:10:56;101771.0;;;24.12;57.18
32452;BME280;45528;52.102;5.242;2023-05-08T09:14:08;101767.0;;;24.24;58.05
32452;BME280;45528;52.102;5.242;2023-05-08T09:15:44;101768.0;;;24.36;57.29
32452;BME280;45528;52.102;5.242;2023-05-08T09:17:20;101764.0;;;24.44;56.13
32452;BME280;45528;52.102;5.242;2023-05-08T09:20:33;101765.0;;;24.68;55.72
32452;BME280;45528;52.102;5.242;2023-05-08T09:22:10;101766.0;;;24.58;55.84
32452;BME280;45528;52.102;5.242;2023-05-08T09:23:55;101767.0;;;24.23;56.18
32452;BME280;45528;52.102;5.242;2023-05-08T09:25:48;101773.0;;;24.74;55.12
32452;BME280;45528;52.102;5.242;2023-05-08T09:29:10;101771.0;;;24.43;55.88
32452;BME280;45528;52.102;5.242;2023-05-08T09:30:48;101776.0;;;24.58;55.82
32452;BME280;45528;52.102;5.242;2023-05-08T09:32:25;101774.0;;;24.34;56.04
32452;BME280;45528;52.102;5.242;2023-05-08T09:34:02;101769.0;;;24.4;56.0
32452;BME280;45528;52.102;5.242;2023-05-08T09:37:16;101774.0;;;24.42;56.2
32452;BME280;45528;52.102;5.242;2023-05-08T09:38:52;101770.0;;;24.56;56.24
32452;BME280;45528;52.102;5.242;2023-05-08T09:40:28;101770.0;;;24.49;56.34
32452;BME280;45528;52.102;5.242;2023-05-08T09:43:41;101768.0;;;24.58;56.28
32452;BME280;45528;52.102;5.242;2023-05-08T09:45:26;101773.0;;;24.68;55.84
32452;BME280;45528;52.102;5.242;2023-05-08T09:47:10;101769.0;;;24.45;55.72
32452;BME280;45528;52.102;5.242;2023-05-08T09:48:49;101768.0;;;24.67;55.86
32452;BME280;45528;52.102;5.242;2023-05-08T09:52:04;101772.0;;;24.76;55.9
32452;BME280;45528;52.102;5.242;2023-05-08T09:53:40;101773.0;;;24.7;56.0
32452;BME280;45528;52.102;5.242;2023-05-08T09:55:16;101767.0;;;24.53;55.66
32452;BME280;45528;52.102;5.242;2023-05-08T09:58:36;101772.0;;;24.79;55.38
32452;BME280;45528;52.102;5.242;2023-05-08T10:00:13;101772.0;;;24.78;55.39
32452;BME280;45528;52.102;5.242;2023-05-08T10:01:50;101777.0;;;24.9;56.0
32452;BME280;45528;52.102;5.242;2023-05-08T10:03:44;101780.0;;;24.7;55.15
32452;BME280;45528;52.102;5.242;2023-05-08T10:05:22;101776.0;;;24.7;56.06
32452;BME280;45528;52.102;5.242;2023-05-08T10:08:37;101777.0;;;24.59;55.14
32452;BME280;45528;52.102;5.242;2023-05-08T10:10:13;101776.0;;;24.55;55.2
32452;BME280;45528;52.102;5.242;2023-05-08T10:11:56;101776.0;;;24.52;56.04
32452;BME280;45528;52.102;5.242;2023-05-08T10:15:09;101775.0;;;24.53;55.9
32452;BME280;45528;52.102;5.242;2023-05-08T10:16:46;101778.0;;;24.9;55.77
32452;BME280;45528;52.102;5.242;2023-05-08T10:18:28;101781.0;;;25.01;55.12
32452;BME280;45528;52.102;5.242;2023-05-08T10:20:06;101780.0;;;24.92;55.75
32452;BME280;45528;52.102;5.242;2023-05-08T10:23:22;101778.0;;;24.94;54.62
32452;BME280;45528;52.102;5.242;2023-05-08T10:25:01;101780.0;;;24.98;53.97
32452;BME280;45528;52.102;5.242;2023-05-08T10:26:41;101784.0;;;25.03;54.02
32452;BME280;45528;52.102;5.242;2023-05-08T10:28:24;101774.0;;;24.86;53.49
32452;BME280;45528;52.102;5.242;2023-05-08T10:31:45;101778.0;;;25.17;53.42
32452;BME280;45528;52.102;5.242;2023-05-08T10:33:28;101776.0;;;25.15;54.77
32452;BME280;45528;52.102;5.242;2023-05-08T10:35:09;101777.0;;;25.26;54.33
32452;BME280;45528;52.102;5.242;2023-05-08T10:36:46;101780.0;;;25.2;53.47
32452;BME280;45528;52.102;5.242;2023-05-08T10:40:01;101781.0;;;25.55;52.86
32452;BME280;45528;52.102;5.242;2023-05-08T10:41:39;101783.0;;;25.45;52.72
32452;BME280;45528;52.102;5.242;2023-05-08T10:43:16;101783.0;;;25.22;52.71
32452;BME280;45528;52.102;5.242;2023-05-08T10:46:39;101780.0;;;25.15;53.01
32452;BME280;45528;52.102;5.242;2023-05-08T10:48:24;101778.0;;;25.21;53.63
32452;BME280;45528;52.102;5.242;2023-05-08T10:50:11;101774.0;;;25.3;53.74
32452;BME280;45528;52.102;5.242;2023-05-08T10:52:00;101778.0;;;25.44;53.76
32452;BME280;45528;52.102;5.242;2023-05-08T10:53:46;101777.0;;;25.37;53.4
32452;BME280;45528;52.102;5.242;2023-05-08T10:57:08;101774.0;;;25.42;54.02
32452;BME280;45528;52.102;5.242;2023-05-08T10:58:54;101772.0;;;25.21;54.14
32452;BME280;45528;52.102;5.242;2023-05-08T11:00:32;101771.0;;;25.43;53.64
32452;BME280;45528;52.102;5.242;2023-05-08T11:02:47;101771.0;;;25.57;53.07
32452;BME280;45528;52.102;5.242;2023-05-08T11:04:23;101769.0;;;25.42;52.75
32452;BME280;45528;52.102;5.242;2023-05-08T11:06:00;101768.0;;;25.51;53.09
32452;BME280;45528;52.102;5.242;2023-05-08T11:09:30;101763.0;;;25.4;53.44